createdAt,value
2022-09-01T16:34:28.567Z,41.58
2022-09-01T16:46:19.520Z,43.09
2022-09-01T16:49:28.741Z,41.68
2022-09-01T16:52:05.634Z,45.97
2022-09-01T16:54:45.029Z,44.13
2022-09-01T16:57:36.633Z,43.99
2022-09-01T17:00:09.335Z,44.85
2022-09-01T17:03:08.062Z,45.74
2022-09-01T17:05:54.575Z,45.98
2022-09-01T17:08:21.718Z,46.45
2022-09-01T17:10:57.694Z,47.09
2022-09-01T17:13:36.272Z,46.82
2022-09-01T17:16:16.159Z,46.49
2022-09-01T17:18:48.454Z,47.07
2022-09-01T17:21:22.257Z,46.77
2022-09-01T17:23:57.960Z,46.06
2022-09-01T17:26:29.886Z,46.79
2022-09-01T17:29:01.116Z,46.14
2022-09-01T17:31:59.792Z,46.05
2022-09-01T17:34:48.408Z,46.18
2022-09-01T17:37:56.372Z,45.69
2022-09-01T17:40:52.908Z,46.43
2022-09-01T17:43:46.033Z,47.22
2022-09-01T17:46:31.748Z,47.58
2022-09-01T17:49:28.017Z,46.84
2022-09-01T17:52:08.084Z,47.20
2022-09-01T17:54:41.691Z,48.07
2022-09-01T17:57:32.877Z,48.27
2022-09-01T18:00:05.968Z,48.55
2022-09-01T18:02:46.790Z,48.47
2022-09-01T18:05:16.282Z,48.89
2022-09-01T18:08:04.172Z,48.79
2022-09-01T18:10:39.416Z,49.30
2022-09-01T18:13:10.062Z,49.76
2022-09-01T18:15:52.553Z,49.58
2022-09-01T18:18:24.550Z,49.93
2022-09-01T18:20:54.776Z,50.37
2022-09-01T18:23:21.926Z,50.60
2022-09-01T18:26:38.148Z,50.48
2022-09-01T18:29:06.021Z,50.63
2022-09-01T18:31:33.853Z,50.93
2022-09-01T18:34:15.773Z,51.14
2022-09-01T18:37:07.719Z,51.27
2022-09-01T18:40:02.064Z,51.78
2022-09-01T18:42:49.771Z,52.18
2022-09-01T18:45:29.105Z,52.45
2022-09-01T18:48:19.749Z,52.57
2022-09-01T18:50:53.084Z,52.68
2022-09-01T18:53:44.431Z,53.19
2022-09-01T18:56:24.757Z,53.50
2022-09-01T18:59:17.621Z,53.51
2022-09-01T19:02:00.133Z,54.43
2022-09-01T19:04:31.710Z,54.73
2022-09-01T19:07:08.272Z,55.39
2022-09-01T19:09:45.455Z,56.32
2022-09-01T19:12:27.115Z,56.22
2022-09-01T19:15:11.541Z,56.69
2022-09-01T19:17:56.113Z,56.99
2022-09-01T19:20:29.772Z,57.34
2022-09-01T19:23:14.990Z,57.19
2022-09-01T19:25:42.356Z,58.00
2022-09-01T19:28:15.884Z,57.79
2022-09-01T19:30:48.161Z,58.13
2022-09-01T19:33:20.263Z,58.28
2022-09-01T19:35:48.510Z,58.82
2022-09-01T19:38:20.859Z,58.93
2022-09-01T19:40:50.167Z,59.34
2022-09-01T19:43:18.143Z,59.53
2022-09-01T19:46:00.519Z,60.12
2022-09-01T19:48:55.702Z,60.56
2022-09-01T19:51:30.389Z,59.98
2022-09-01T19:54:12.566Z,59.63
2022-09-01T19:56:49.722Z,59.87
2022-09-01T19:59:19.472Z,59.77
2022-09-01T20:01:58.013Z,60.88
2022-09-01T20:04:36.812Z,61.63
2022-09-01T20:07:04.482Z,60.70
2022-09-01T20:09:43.787Z,62.11
2022-09-01T20:12:40.076Z,62.13
2022-09-01T20:15:16.112Z,61.82
2022-09-01T20:17:47.947Z,61.85
2022-09-01T20:20:17.608Z,62.94
2022-09-01T20:23:09.037Z,63.38
2022-09-01T20:25:43.134Z,63.69
2022-09-01T20:28:31.232Z,64.25
2022-09-01T20:31:12.288Z,64.25
2022-09-01T20:33:51.081Z,64.31
2022-09-01T20:36:28.331Z,64.48
2022-09-01T20:39:22.255Z,63.99
2022-09-01T20:42:02.927Z,63.99
2022-09-01T20:44:45.125Z,64.38
2022-09-01T20:47:12.712Z,64.91
2022-09-01T20:49:40.195Z,65.25
2022-09-01T20:52:12.481Z,65.37
2022-09-01T20:54:50.484Z,65.76
2022-09-01T20:58:08.279Z,65.61
2022-09-01T21:00:47.863Z,66.29
2022-09-01T21:03:50.868Z,66.86
2022-09-01T21:06:44.833Z,66.11
2022-09-01T21:09:24.279Z,66.73
2022-09-01T21:12:13.239Z,66.90
2022-09-01T21:15:01.907Z,65.90
2022-09-01T21:17:48.847Z,67.58
2022-09-01T21:20:31.036Z,66.85
2022-09-01T21:22:58.337Z,67.63
2022-09-01T21:25:25.358Z,68.34
2022-09-01T21:27:56.055Z,67.75
2022-09-01T21:30:24.122Z,68.15
2022-09-01T21:32:56.681Z,68.37
2022-09-01T21:35:24.093Z,68.65
2022-09-01T21:37:51.709Z,68.10
2022-09-01T21:40:22.169Z,68.54
2022-09-01T21:42:59.987Z,69.04
2022-09-01T21:45:27.402Z,68.67
2022-09-01T21:47:54.576Z,69.37
2022-09-01T21:50:23.431Z,69.35
2022-09-01T21:52:50.897Z,69.56
2022-09-01T21:55:22.520Z,69.05
2022-09-01T21:57:51.073Z,69.39
2022-09-01T22:00:22.023Z,69.34
2022-09-01T22:02:49.217Z,69.29
2022-09-01T22:05:16.696Z,69.61
2022-09-01T22:07:45.785Z,69.41
2022-09-01T22:10:17.911Z,70.03
2022-09-01T22:12:46.401Z,69.44
2022-09-01T22:15:16.002Z,70.09
2022-09-01T22:17:43.367Z,70.32
2022-09-01T22:20:12.557Z,70.71
2022-09-01T22:22:39.895Z,70.83
2022-09-01T22:25:13.294Z,71.83
2022-09-01T22:27:40.706Z,71.38
2022-09-01T22:30:08.770Z,71.50
2022-09-01T22:32:38.946Z,71.30
2022-09-01T22:35:08.485Z,71.31
2022-09-01T22:37:36.593Z,71.45
2022-09-01T22:40:05.365Z,71.61
2022-09-01T22:42:32.950Z,70.95
2022-09-01T22:44:59.987Z,71.18
2022-09-01T22:47:27.024Z,71.30
2022-09-01T22:49:54.884Z,70.87
2022-09-01T22:52:22.225Z,71.60
2022-09-01T22:54:50.420Z,72.12
2022-09-01T22:57:17.499Z,72.62
2022-09-01T22:59:44.549Z,72.35
2022-09-01T23:02:13.741Z,72.56
2022-09-01T23:04:42.516Z,72.38
2022-09-01T23:07:09.833Z,72.89
2022-09-01T23:09:36.872Z,72.89
2022-09-01T23:12:04.205Z,72.38
2022-09-01T23:14:32.004Z,72.88
2022-09-01T23:16:59.514Z,73.34
2022-09-01T23:19:26.540Z,72.66
2022-09-01T23:21:53.723Z,72.35
2022-09-01T23:24:20.995Z,72.41
2022-09-01T23:26:48.915Z,72.78
2022-09-01T23:29:16.360Z,73.33
2022-09-01T23:31:44.265Z,72.76
2022-09-01T23:34:13.203Z,73.19
2022-09-01T23:36:41.531Z,73.53
2022-09-01T23:39:08.617Z,72.95
2022-09-01T23:41:37.298Z,73.11
2022-09-01T23:44:05.982Z,73.69
2022-09-01T23:46:36.920Z,73.15
2022-09-01T23:49:05.303Z,73.56
2022-09-01T23:51:32.391Z,74.00
2022-09-01T23:53:59.483Z,73.89
2022-09-01T23:56:28.643Z,74.23
2022-09-01T23:58:55.877Z,73.80
